Time;durP1;ratioP1;P1;durP2;ratioP2;P2;SDS_P1;SDS_P2;PMS_P1;PMS_P2;Temp;Humidity;BMP_temperature;BMP_pressure;BME280_temperature;BME280_humidity;BME280_pressure;Samples;Min_cycle;Max_cycle;Signal;HPM_P1;HPM_P2
2022/06/03 00:01:28;;;;;;;8.00;4.00;;;;;;;;;;5091149;28;20039;-84
2022/06/03 00:04:00;;;;;;;5.72;3.85;;;;;;;;;;5091357;28;20051;-84
2022/06/03 00:06:48;;;;;;;6.78;4.30;;;;;;;;;;5090012;28;20032;-83
2022/06/03 00:09:14;;;;;;;9.77;4.10;;;;;;;;;;5090654;28;20043;-84
2022/06/03 00:11:46;;;;;;;8.27;4.72;;;;;;;;;;5108033;28;20119;-83
2022/06/03 00:14:28;;;;;;;8.88;4.85;;;;;;;;;;5091355;28;20040;-84
2022/06/03 00:17:03;;;;;;;6.30;4.35;;;;;;;;;;5107841;28;20043;-84
2022/06/03 00:19:47;;;;;;;5.75;3.92;;;;;;;;;;5090706;28;20046;-84
2022/06/03 00:22:13;;;;;;;5.63;4.32;;;;;;;;;;5093433;28;20043;-84
2022/06/03 00:24:48;;;;;;;7.22;4.10;;;;;;;;;;5111084;28;20123;-84
2022/06/03 00:27:21;;;;;;;8.73;4.38;;;;;;;;;;5094169;28;20036;-84
2022/06/03 00:29:56;;;;;;;7.25;3.63;;;;;;;;;;5094401;28;20540;-84
2022/06/03 00:32:34;;;;;;;6.75;4.30;;;;;;;;;;5094467;28;20039;-84
2022/06/03 00:35:00;;;;;;;6.85;4.57;;;;;;;;;;5093716;28;20131;-84
2022/06/03 00:37:26;;;;;;;10.05;4.75;;;;;;;;;;5094324;28;20556;-84
2022/06/03 00:40:11;;;;;;;6.75;4.53;;;;;;;;;;5094173;28;20086;-84
2022/06/03 00:42:52;;;;;;;12.68;4.97;;;;;;;;;;5094334;28;20054;-84
2022/06/03 00:45:37;;;;;;;7.70;4.55;;;;;;;;;;5094124;28;20162;-84
2022/06/03 00:48:06;;;;;;;7.80;5.47;;;;;;;;;;5094180;28;20035;-84
2022/06/03 00:50:35;;;;;;;6.93;4.68;;;;;;;;;;5094219;28;20437;-83
2022/06/03 00:53:04;;;;;;;7.95;4.43;;;;;;;;;;5094317;28;20047;-84
2022/06/03 00:55:39;;;;;;;6.70;4.47;;;;;;;;;;5094018;28;20089;-84
2022/06/03 00:58:08;;;;;;;8.82;4.93;;;;;;;;;;5094368;28;20051;-83
2022/06/03 01:01:04;;;;;;;7.78;4.60;;;;;;;;;;5111321;28;20044;-83
2022/06/03 01:03:39;;;;;;;10.95;5.07;;;;;;;;;;5081370;28;20092;-84
2022/06/03 01:06:26;;;;;;;8.32;4.68;;;;;;;;;;5094129;28;20047;-85
2022/06/03 01:08:58;;;;;;;13.98;4.82;;;;;;;;;;5063456;28;20044;-84
2022/06/03 01:11:24;;;;;;;7.93;4.97;;;;;;;;;;5111069;28;20043;-84
2022/06/03 01:13:50;;;;;;;9.05;4.60;;;;;;;;;;5110768;28;20399;-83
2022/06/03 01:16:19;;;;;;;8.55;4.57;;;;;;;;;;5094245;28;20047;-83
2022/06/03 01:18:48;;;;;;;9.23;5.07;;;;;;;;;;5094066;28;20046;-84
2022/06/03 01:21:23;;;;;;;7.38;4.38;;;;;;;;;;5094057;28;20043;-83
2022/06/03 01:24:18;;;;;;;8.10;4.57;;;;;;;;;;5094253;28;20051;-83
2022/06/03 01:26:56;;;;;;;8.52;4.80;;;;;;;;;;5110695;28;20051;-84
2022/06/03 01:29:45;;;;;;;10.32;4.72;;;;;;;;;;5093916;28;20039;-84
2022/06/03 01:32:21;;;;;;;9.93;5.40;;;;;;;;;;5065676;28;20434;-84
2022/06/03 01:35:05;;;;;;;10.55;5.00;;;;;;;;;;5094045;28;20083;-84
2022/06/03 01:37:34;;;;;;;10.80;4.78;;;;;;;;;;5093927;28;20040;-84
2022/06/03 01:40:06;;;;;;;8.95;5.18;;;;;;;;;;5093444;28;20480;-83
2022/06/03 01:42:51;;;;;;;7.07;4.70;;;;;;;;;;5093639;28;20134;-84
2022/06/03 01:45:44;;;;;;;7.32;4.15;;;;;;;;;;5095112;28;20563;-84
2022/06/03 01:48:28;;;;;;;8.02;5.07;;;;;;;;;;5111586;28;20053;-84
2022/06/03 01:51:03;;;;;;;9.13;5.20;;;;;;;;;;5097323;28;20506;-84
2022/06/03 01:53:48;;;;;;;9.18;5.57;;;;;;;;;;5114510;28;20050;-83
2022/06/03 01:56:36;;;;;;;7.32;5.18;;;;;;;;;;5097181;28;20180;-84
2022/06/03 01:59:29;;;;;;;9.15;5.45;;;;;;;;;;5114038;28;20097;-83
2022/06/03 02:02:13;;;;;;;8.35;5.18;;;;;;;;;;5073879;28;20400;-83
2022/06/03 02:04:58;;;;;;;9.68;4.85;;;;;;;;;;5096995;28;20070;-83
2022/06/03 02:07:24;;;;;;;10.02;5.28;;;;;;;;;;5114071;28;20035;-83
2022/06/03 02:10:09;;;;;;;9.88;5.05;;;;;;;;;;5097321;28;20540;-84
2022/06/03 02:12:38;;;;;;;7.63;5.00;;;;;;;;;;5114216;28;20163;-84
2022/06/03 02:15:23;;;;;;;9.35;4.88;;;;;;;;;;5097082;28;20131;-84
2022/06/03 02:18:02;;;;;;;6.40;4.57;;;;;;;;;;5096900;28;20036;-84
2022/06/03 02:20:46;;;;;;;10.77;5.22;;;;;;;;;;5097168;28;20511;-83
2022/06/03 02:23:39;;;;;;;9.38;5.20;;;;;;;;;;5096867;28;20368;-84
2022/06/03 02:26:23;;;;;;;8.60;4.93;;;;;;;;;;5094194;28;20043;-82
2022/06/03 02:30:24;;;;;;;8.80;5.13;;;;;;;;;;5096705;28;20031;-83
2022/06/03 02:31:52;;;;;;;9.02;5.20;;;;;;;;;;5113426;28;20510;-84
2022/06/03 02:34:36;;;;;;;9.02;4.63;;;;;;;;;;5096481;28;20509;-84
2022/06/03 02:37:05;;;;;;;8.93;5.40;;;;;;;;;;5096813;28;20043;-83
2022/06/03 02:39:58;;;;;;;10.10;5.43;;;;;;;;;;5096326;28;20039;-84
2022/06/03 02:42:45;;;;;;;8.68;4.93;;;;;;;;;;5096350;28;20135;-83
2022/06/03 02:45:41;;;;;;;7.32;4.43;;;;;;;;;;5113519;28;20495;-83
2022/06/03 02:48:20;;;;;;;9.13;5.57;;;;;;;;;;5096695;28;20036;-83
2022/06/03 02:50:52;;;;;;;8.05;4.88;;;;;;;;;;5113682;28;20034;-83
2022/06/03 02:53:34;;;;;;;8.68;5.03;;;;;;;;;;5096326;28;20398;-83
2022/06/03 02:55:59;;;;;;;;;;;;;;;;;;5096552;28;20483;-84
2022/06/03 02:58:35;;;;;;;7.90;5.28;;;;;;;;;;5095720;28;19926;-84
2022/06/03 03:01:13;;;;;;;9.75;5.53;;;;;;;;;;5096370;28;20116;-84
2022/06/03 03:03:58;;;;;;;10.38;5.53;;;;;;;;;;5096329;28;20070;-83
2022/06/03 03:06:30;;;;;;;8.52;5.55;;;;;;;;;;5095817;28;20104;-84
2022/06/03 03:09:02;;;;;;;8.85;4.63;;;;;;;;;;5096223;28;20036;-84
2022/06/03 03:11:41;;;;;;;8.25;5.10;;;;;;;;;;5095991;28;20113;-84
2022/06/03 03:14:29;;;;;;;7.18;4.32;;;;;;;;;;5095866;28;20036;-83
2022/06/03 03:17:15;;;;;;;13.68;5.32;;;;;;;;;;5112995;28;20043;-83
2022/06/03 03:19:48;;;;;;;8.23;4.95;;;;;;;;;;5112988;28;20039;-83
2022/06/03 03:22:33;;;;;;;7.25;4.47;;;;;;;;;;5112877;28;20050;-83
2022/06/03 03:25:15;;;;;;;8.43;5.07;;;;;;;;;;5112603;28;20043;-83
2022/06/03 03:27:56;;;;;;;9.07;4.80;;;;;;;;;;5095736;28;20035;-84
2022/06/03 03:30:35;;;;;;;9.07;5.50;;;;;;;;;;5095664;28;20035;-83
2022/06/03 03:33:01;;;;;;;8.90;5.15;;;;;;;;;;5095634;28;20089;-83
2022/06/03 03:35:46;;;;;;;11.15;5.85;;;;;;;;;;5095427;28;20428;-83
2022/06/03 03:38:12;;;;;;;11.80;5.57;;;;;;;;;;5095381;28;20039;-84
2022/06/03 03:40:38;;;;;;;10.75;5.80;;;;;;;;;;5112337;28;20043;-83
2022/06/03 03:43:23;;;;;;;10.05;5.60;;;;;;;;;;5095605;28;20085;-83
2022/06/03 03:46:08;;;;;;;7.47;4.40;;;;;;;;;;5095421;28;20040;-84
2022/06/03 03:48:34;;;;;;;7.88;5.15;;;;;;;;;;5095414;28;20032;-83
2022/06/03 03:51:09;;;;;;;9.98;5.70;;;;;;;;;;5095278;28;20112;-83
2022/06/03 03:53:35;;;;;;;11.20;5.95;;;;;;;;;;5095134;28;20039;-84
2022/06/03 03:56:19;;;;;;;11.40;5.00;;;;;;;;;;5095030;28;20497;-84
2022/06/03 03:58:45;;;;;;;9.85;5.65;;;;;;;;;;5094964;28;20096;-83
2022/06/03 04:01:30;;;;;;;10.13;6.15;;;;;;;;;;5111914;28;20051;-83
2022/06/03 04:04:00;;;;;;;10.25;5.72;;;;;;;;;;5095196;28;20493;-84
2022/06/03 04:06:45;;;;;;;10.60;5.40;;;;;;;;;;5094688;28;20062;-83
2022/06/03 04:09:28;;;;;;;8.02;5.22;;;;;;;;;;5093875;28;20039;-83
2022/06/03 04:12:07;;;;;;;11.32;6.30;;;;;;;;;;5094833;28;20036;-84
2022/06/03 04:14:40;;;;;;;9.82;6.18;;;;;;;;;;5094739;28;20039;-84
2022/06/03 04:17:06;;;;;;;13.05;6.63;;;;;;;;;;5094771;28;20072;-84
2022/06/03 04:19:38;;;;;;;12.27;6.38;;;;;;;;;;5111836;28;20126;-84
2022/06/03 04:22:23;;;;;;;12.02;7.13;;;;;;;;;;5094627;28;20092;-84
2022/06/03 04:24:52;;;;;;;11.13;6.88;;;;;;;;;;5111503;28;20082;-84
2022/06/03 04:27:38;;;;;;;11.07;6.35;;;;;;;;;;5094533;28;20077;-85
2022/06/03 04:30:15;;;;;;;12.10;7.05;;;;;;;;;;5094450;28;20123;-84
2022/06/03 04:32:54;;;;;;;11.27;6.22;;;;;;;;;;5111367;28;20043;-84
2022/06/03 04:35:39;;;;;;;10.82;6.03;;;;;;;;;;5094411;28;20505;-84
2022/06/03 04:38:05;;;;;;;10.48;6.55;;;;;;;;;;5095243;28;20035;-84
2022/06/03 04:41:09;;;;;;;9.73;6.57;;;;;;;;;;5112369;28;20055;-84
2022/06/03 04:43:41;;;;;;;12.65;6.30;;;;;;;;;;5037707;28;20135;-83
2022/06/03 04:46:25;;;;;;;12.07;6.55;;;;;;;;;;5037373;28;20540;-83
2022/06/03 04:48:51;;;;;;;13.05;7.13;;;;;;;;;;5072387;28;20040;-83
2022/06/03 04:51:33;;;;;;;10.95;6.82;;;;;;;;;;5111310;28;20035;-84
2022/06/03 04:54:08;;;;;;;11.73;6.15;;;;;;;;;;5093034;28;20070;-84
2022/06/03 04:56:37;;;;;;;9.32;5.43;;;;;;;;;;5091580;28;20035;-84
2022/06/03 04:59:06;;;;;;;11.13;5.78;;;;;;;;;;5094104;28;20075;-83
2022/06/03 05:01:47;;;;;;;8.70;5.90;;;;;;;;;;5091293;28;20483;-84
2022/06/03 05:04:16;;;;;;;9.60;6.13;;;;;;;;;;5091046;28;20050;-83
2022/06/03 05:06:42;;;;;;;9.20;5.00;;;;;;;;;;5093541;28;20462;-84
2022/06/03 05:09:27;;;;;;;7.85;4.63;;;;;;;;;;5094056;28;20093;-83
2022/06/03 05:11:59;;;;;;;6.47;4.10;;;;;;;;;;5095325;28;20578;-85
2022/06/03 05:14:43;;;;;;;7.18;4.35;;;;;;;;;;5112076;28;20452;-84
2022/06/03 05:17:15;;;;;;;6.97;4.28;;;;;;;;;;5095454;28;20039;-84
2022/06/03 05:19:52;;;;;;;6.07;4.60;;;;;;;;;;5112637;28;20441;-84
2022/06/03 05:22:33;;;;;;;9.50;4.97;;;;;;;;;;5099504;28;20498;-84
2022/06/03 05:25:02;;;;;;;4.60;3.70;;;;;;;;;;5099177;28;20550;-83
2022/06/03 05:27:46;;;;;;;5.68;4.25;;;;;;;;;;5098015;28;20069;-84
2022/06/03 05:30:12;;;;;;;7.55;4.53;;;;;;;;;;5095175;28;20085;-84
2022/06/03 05:32:49;;;;;;;4.57;4.10;;;;;;;;;;5110182;28;20035;-84
2022/06/03 05:35:36;;;;;;;5.72;4.60;;;;;;;;;;5091438;28;20367;-83
2022/06/03 05:38:18;;;;;;;6.43;4.47;;;;;;;;;;5092624;28;20498;-83
2022/06/03 05:40:59;;;;;;;7.30;4.85;;;;;;;;;;5092780;28;20051;-81
2022/06/03 05:43:50;;;;;;;5.20;4.30;;;;;;;;;;5095270;28;20130;-83
2022/06/03 05:46:24;;;;;;;10.40;4.32;;;;;;;;;;5098860;28;20049;-82
2022/06/03 05:48:50;;;;;;;6.28;4.40;;;;;;;;;;5115366;28;20035;-83
2022/06/03 05:51:34;;;;;;;5.90;4.07;;;;;;;;;;5096937;28;20039;-84
2022/06/03 05:54:14;;;;;;;5.63;4.95;;;;;;;;;;5091879;28;20032;-84
2022/06/03 05:56:40;;;;;;;7.78;4.13;;;;;;;;;;5108694;28;20104;-83
2022/06/03 05:59:24;;;;;;;7.63;5.13;;;;;;;;;;5093242;28;20062;-84
2022/06/03 06:01:56;;;;;;;5.28;4.78;;;;;;;;;;5110155;28;20043;-83
2022/06/03 06:04:28;;;;;;;6.55;5.47;;;;;;;;;;5093139;28;20740;-83
2022/06/03 06:07:04;;;;;;;7.10;5.03;;;;;;;;;;5090441;28;20054;-82
2022/06/03 06:09:44;;;;;;;6.63;4.97;;;;;;;;;;5093192;28;20040;-83
2022/06/03 06:12:19;;;;;;;6.22;4.80;;;;;;;;;;5094100;28;20540;-83
2022/06/03 06:14:48;;;;;;;5.47;4.70;;;;;;;;;;5096453;28;20403;-83
2022/06/03 06:17:39;;;;;;;4.82;4.43;;;;;;;;;;5093717;28;20081;-84
2022/06/03 06:20:16;;;;;;;6.57;4.38;;;;;;;;;;5095174;28;20047;-83
2022/06/03 06:22:54;;;;;;;4.88;4.47;;;;;;;;;;5112086;28;20051;-83
2022/06/03 06:25:41;;;;;;;4.93;4.18;;;;;;;;;;5094560;28;20069;-84
2022/06/03 06:28:26;;;;;;;5.50;4.30;;;;;;;;;;5095585;28;20071;-82
2022/06/03 06:30:59;;;;;;;4.75;4.25;;;;;;;;;;5092817;28;20075;-83
2022/06/03 06:33:41;;;;;;;4.97;4.43;;;;;;;;;;5112526;28;20036;-83
2022/06/03 06:36:19;;;;;;;4.85;4.40;;;;;;;;;;5095525;28;20042;-82
2022/06/03 06:38:52;;;;;;;4.53;4.07;;;;;;;;;;5111429;28;20051;-84
2022/06/03 06:41:29;;;;;;;4.43;3.50;;;;;;;;;;5110945;28;20051;-80
2022/06/03 06:44:09;;;;;;;4.05;3.50;;;;;;;;;;5093447;28;20050;-81
2022/06/03 06:46:44;;;;;;;3.33;3.03;;;;;;;;;;5093443;28;20044;-83
2022/06/03 06:49:10;;;;;;;4.57;3.53;;;;;;;;;;5112942;28;20036;-85
2022/06/03 06:51:56;;;;;;;4.05;3.45;;;;;;;;;;5096415;28;20038;-83
2022/06/03 06:54:28;;;;;;;3.90;3.08;;;;;;;;;;5094832;28;20039;-81
2022/06/03 06:56:59;;;;;;;3.63;3.10;;;;;;;;;;5093450;28;20039;-83
2022/06/03 06:59:31;;;;;;;3.63;3.30;;;;;;;;;;5095705;28;20420;-85
2022/06/03 07:02:01;;;;;;;4.30;3.22;;;;;;;;;;5093439;28;20131;-83
2022/06/03 07:04:27;;;;;;;;;;;;;;;;;;5096192;28;20042;-84
2022/06/03 07:06:53;;;;;;;3.70;2.97;;;;;;;;;;5109491;28;19919;-83
2022/06/03 07:09:38;;;;;;;3.45;3.05;;;;;;;;;;5095591;28;20036;-83
2022/06/03 07:12:08;;;;;;;2.58;2.38;;;;;;;;;;5111000;28;20097;-84
2022/06/03 07:14:39;;;;;;;3.08;2.50;;;;;;;;;;5093168;28;20050;-84
2022/06/03 07:20:05;;;;;;;3.00;2.22;;;;;;;;;;5110057;28;20043;-84
2022/06/03 07:22:31;;;;;;;2.38;1.80;;;;;;;;;;5096129;28;20115;-89
2022/06/03 07:25:03;;;;;;;2.80;2.17;;;;;;;;;;5095112;28;20122;-84
2022/06/03 07:27:33;;;;;;;2.05;1.50;;;;;;;;;;5095418;28;20028;-83
2022/06/03 07:30:08;;;;;;;2.17;1.80;;;;;;;;;;5095113;28;20424;-87
2022/06/03 07:32:41;;;;;;;2.72;2.28;;;;;;;;;;5092468;28;20036;-83
2022/06/03 07:35:07;;;;;;;2.63;1.92;;;;;;;;;;5095023;28;20502;-84
2022/06/03 07:37:46;;;;;;;2.58;2.20;;;;;;;;;;5092320;28;20035;-83
2022/06/03 07:40:17;;;;;;;3.80;2.40;;;;;;;;;;5111682;28;20039;-83
2022/06/03 07:42:46;;;;;;;2.72;2.53;;;;;;;;;;5094040;28;20093;-82
2022/06/03 07:45:27;;;;;;;4.72;3.28;;;;;;;;;;5094554;28;20032;-82
2022/06/03 07:47:59;;;;;;;3.13;2.83;;;;;;;;;;5092130;28;20114;-84
2022/06/03 07:50:27;;;;;;;3.58;3.28;;;;;;;;;;5094434;28;20032;-83
2022/06/03 07:52:59;;;;;;;3.65;3.30;;;;;;;;;;5091815;28;20067;-83
2022/06/03 07:55:26;;;;;;;4.50;3.20;;;;;;;;;;5094454;28;20054;-82
2022/06/03 07:57:55;;;;;;;3.70;2.83;;;;;;;;;;5094371;28;20487;-82
2022/06/03 08:00:21;;;;;;;4.63;3.08;;;;;;;;;;5094749;28;20548;-82
2022/06/03 08:03:00;;;;;;;5.00;2.90;;;;;;;;;;5094239;28;20101;-82
2022/06/03 08:05:26;;;;;;;3.15;2.63;;;;;;;;;;5094322;28;20050;-82
2022/06/03 08:10:58;;;;;;;2.73;2.53;;;;;;;;;;5109776;28;20587;-83
2022/06/03 08:13:44;;;;;;;5.15;2.70;;;;;;;;;;5093080;28;20688;-83
2022/06/03 08:16:25;;;;;;;3.30;2.97;;;;;;;;;;5093622;28;20039;-83
2022/06/03 08:18:51;;;;;;;3.78;3.00;;;;;;;;;;5093946;28;20113;-81
2022/06/03 08:21:22;;;;;;;4.38;2.78;;;;;;;;;;5111423;28;20563;-87
2022/06/03 08:23:48;;;;;;;3.60;2.58;;;;;;;;;;5077426;28;20050;-84
2022/06/03 08:26:16;;;;;;;3.03;2.75;;;;;;;;;;5094223;28;20055;-86
2022/06/03 08:28:48;;;;;;;3.08;2.78;;;;;;;;;;5076381;28;20036;-83
2022/06/03 08:31:14;;;;;;;2.70;2.50;;;;;;;;;;5109243;28;20418;-87
2022/06/03 08:33:48;;;;;;;3.35;2.58;;;;;;;;;;5094776;28;20395;-88
2022/06/03 08:36:17;;;;;;;3.20;2.50;;;;;;;;;;5088811;28;20035;-82
2022/06/03 08:38:45;;;;;;;3.40;2.97;;;;;;;;;;5093974;28;20089;-83
2022/06/03 08:41:30;;;;;;;3.63;2.75;;;;;;;;;;5110670;28;20145;-83
2022/06/03 08:44:02;;;;;;;4.13;3.00;;;;;;;;;;5091662;28;20171;-81
2022/06/03 08:46:29;;;;;;;3.35;3.05;;;;;;;;;;5093916;28;20040;-81
2022/06/03 08:49:01;;;;;;;3.83;3.38;;;;;;;;;;5110746;28;20035;-82
2022/06/03 08:51:40;;;;;;;3.50;3.15;;;;;;;;;;5110548;28;20065;-83
2022/06/03 08:54:18;;;;;;;4.30;2.60;;;;;;;;;;5092480;28;20050;-83
2022/06/03 08:56:46;;;;;;;3.97;3.20;;;;;;;;;;5092302;28;20046;-82
2022/06/03 08:59:16;;;;;;;3.25;2.95;;;;;;;;;;5093404;28;20043;-80
2022/06/03 09:01:51;;;;;;;3.45;3.25;;;;;;;;;;5093417;28;20043;-82
2022/06/03 09:04:20;;;;;;;3.90;3.50;;;;;;;;;;5091391;28;20483;-83
2022/06/03 09:06:58;;;;;;;4.18;3.25;;;;;;;;;;5093387;28;20040;-88
2022/06/03 09:09:42;;;;;;;4.03;3.38;;;;;;;;;;5092382;28;20038;-80
2022/06/03 09:12:15;;;;;;;5.22;3.60;;;;;;;;;;5092833;28;20172;-83
2022/06/03 09:14:42;;;;;;;3.83;3.10;;;;;;;;;;5094053;28;20035;-83
2022/06/03 09:17:27;;;;;;;5.47;3.53;;;;;;;;;;5110485;28;20094;-81
2022/06/03 09:19:55;;;;;;;3.80;3.40;;;;;;;;;;5108009;28;20036;-82
2022/06/03 09:22:23;;;;;;;5.45;3.20;;;;;;;;;;5110310;28;20039;-82
2022/06/03 09:24:50;;;;;;;3.75;3.20;;;;;;;;;;5093733;28;20040;-89
2022/06/03 09:27:17;;;;;;;3.58;3.00;;;;;;;;;;5093756;28;20036;-86
2022/06/03 09:29:52;;;;;;;3.78;3.20;;;;;;;;;;5093724;28;20038;-82
2022/06/03 09:32:19;;;;;;;3.92;3.28;;;;;;;;;;5093387;28;20041;-80
2022/06/03 09:34:50;;;;;;;4.70;3.10;;;;;;;;;;5110087;28;20039;-81
2022/06/03 09:37:25;;;;;;;4.40;3.10;;;;;;;;;;5090930;28;20123;-81
2022/06/03 09:39:52;;;;;;;3.10;2.90;;;;;;;;;;5092795;28;20063;-82
2022/06/03 09:42:20;;;;;;;4.10;3.13;;;;;;;;;;5109903;28;20122;-81
2022/06/03 09:44:47;;;;;;;3.30;2.72;;;;;;;;;;5093510;28;20042;-80
2022/06/03 09:47:16;;;;;;;3.60;3.28;;;;;;;;;;5107221;28;20040;-81
2022/06/03 09:49:44;;;;;;;4.95;3.50;;;;;;;;;;5093294;28;20065;-79
2022/06/03 09:52:12;;;;;;;3.47;3.17;;;;;;;;;;5093269;28;20032;-82
2022/06/03 09:54:39;;;;;;;3.55;3.20;;;;;;;;;;5092900;28;20116;-83
2022/06/03 09:57:05;;;;;;;3.75;2.95;;;;;;;;;;5092892;28;20093;-84
2022/06/03 09:59:34;;;;;;;3.88;3.45;;;;;;;;;;5093500;28;20084;-82
2022/06/03 10:02:00;;;;;;;4.32;2.92;;;;;;;;;;5093054;28;20031;-83
2022/06/03 10:04:26;;;;;;;3.60;3.17;;;;;;;;;;5110013;28;20089;-80
2022/06/03 10:06:53;;;;;;;3.05;2.55;;;;;;;;;;5112077;28;20400;-82
2022/06/03 10:17:48;;;;;;;4.65;2.92;;;;;;;;;;5112636;28;20499;-81
2022/06/03 10:20:15;;;;;;;3.13;2.85;;;;;;;;;;5093811;28;20035;-82
2022/06/03 10:22:41;;;;;;;4.97;3.30;;;;;;;;;;5113721;28;20114;-82
2022/06/03 10:25:08;;;;;;;3.10;2.80;;;;;;;;;;5113294;28;20036;-82
2022/06/03 10:27:34;;;;;;;4.60;3.13;;;;;;;;;;5111264;28;20039;-81
2022/06/03 10:30:03;;;;;;;4.10;2.60;;;;;;;;;;5096957;28;20057;-81
2022/06/03 10:32:29;;;;;;;3.17;2.80;;;;;;;;;;5096142;28;20071;-82
2022/06/03 10:35:15;;;;;;;2.60;2.20;;;;;;;;;;5096303;28;20044;-80
2022/06/03 10:37:51;;;;;;;3.22;2.70;;;;;;;;;;5096375;28;20084;-82
2022/06/03 10:40:19;;;;;;;3.53;2.72;;;;;;;;;;5111047;28;20055;-80
2022/06/03 10:42:49;;;;;;;2.88;2.67;;;;;;;;;;5113222;28;20039;-83
2022/06/03 10:45:15;;;;;;;3.47;2.65;;;;;;;;;;5110706;28;20069;-78
2022/06/03 10:47:46;;;;;;;2.65;2.45;;;;;;;;;;5112744;28;20085;-81
2022/06/03 10:50:34;;;;;;;3.00;2.28;;;;;;;;;;5095828;28;20035;-81
2022/06/03 11:01:30;;;;;;;3.00;2.80;;;;;;;;;;5113846;28;20130;-83
2022/06/03 11:03:56;;;;;;;3.00;2.67;;;;;;;;;;5097341;28;20035;-81
2022/06/03 11:06:25;;;;;;;3.60;3.03;;;;;;;;;;5096749;28;20356;-84
2022/06/03 11:08:51;;;;;;;3.45;3.15;;;;;;;;;;5097953;28;20036;-84
2022/06/03 11:11:31;;;;;;;2.90;2.70;;;;;;;;;;5097251;28;20387;-84
2022/06/03 11:13:57;;;;;;;3.60;2.80;;;;;;;;;;5095338;28;20089;-81
2022/06/03 11:16:24;;;;;;;3.88;2.53;;;;;;;;;;5109794;28;20043;-81
2022/06/03 11:18:51;;;;;;;3.08;2.60;;;;;;;;;;5091726;28;20070;-80
2022/06/03 11:21:17;;;;;;;3.20;2.90;;;;;;;;;;5092248;28;20036;-80
2022/06/03 11:23:43;;;;;;;3.42;3.13;;;;;;;;;;5093104;28;20039;-82
2022/06/03 11:26:09;;;;;;;3.83;3.03;;;;;;;;;;5109523;28;20039;-82
2022/06/03 11:28:38;;;;;;;2.85;2.47;;;;;;;;;;5109939;28;20122;-84
2022/06/03 11:31:07;;;;;;;3.20;2.90;;;;;;;;;;5108996;28;20131;-81
2022/06/03 11:33:36;;;;;;;3.38;2.75;;;;;;;;;;5091966;28;20039;-80
2022/06/03 11:36:02;;;;;;;3.85;3.50;;;;;;;;;;5092513;28;20045;-80
2022/06/03 11:38:32;;;;;;;4.80;3.20;;;;;;;;;;5092371;28;20406;-83
2022/06/03 11:41:03;;;;;;;5.25;3.10;;;;;;;;;;5092245;28;20055;-87
2022/06/03 11:43:29;;;;;;;4.03;2.80;;;;;;;;;;5091695;28;20051;-81
2022/06/03 11:45:58;;;;;;;5.20;3.47;;;;;;;;;;5092537;28;20039;-83
2022/06/03 11:48:39;;;;;;;4.53;2.78;;;;;;;;;;5093953;28;20055;-86
2022/06/03 11:51:07;;;;;;;4.07;3.40;;;;;;;;;;5092253;28;20093;-82
2022/06/03 11:53:35;;;;;;;3.60;2.90;;;;;;;;;;5091253;28;20083;-79
2022/06/03 11:56:02;;;;;;;3.28;2.53;;;;;;;;;;5094078;28;20127;-79
2022/06/03 11:58:38;;;;;;;4.75;2.83;;;;;;;;;;5096925;28;20463;-79
2022/06/03 12:01:07;;;;;;;4.05;2.90;;;;;;;;;;5096435;28;20036;-79
2022/06/03 12:03:41;;;;;;;3.67;2.58;;;;;;;;;;5112001;28;20483;-82
2022/06/03 12:06:11;;;;;;;2.72;2.53;;;;;;;;;;5095821;28;20047;-84
2022/06/03 12:08:46;;;;;;;2.95;2.40;;;;;;;;;;5095702;28;20040;-82
2022/06/03 12:13:14;;;;;;;3.05;2.53;;;;;;;;;;5111920;28;20043;-81
2022/06/03 12:14:11;;;;;;;3.10;2.10;;;;;;;;;;5111402;28;20137;-81
2022/06/03 12:16:54;;;;;;;2.95;2.63;;;;;;;;;;5095613;28;20095;-86
2022/06/03 12:19:36;;;;;;;2.50;2.30;;;;;;;;;;5095341;28;20073;-81
2022/06/03 12:22:15;;;;;;;3.03;2.15;;;;;;;;;;5096821;28;20039;-84
2022/06/03 12:24:43;;;;;;;2.20;1.95;;;;;;;;;;5096074;28;20048;-82
2022/06/03 12:27:12;;;;;;;4.03;2.15;;;;;;;;;;5111297;28;20070;-80
2022/06/03 12:29:42;;;;;;;4.30;2.40;;;;;;;;;;5110530;28;20077;-81
2022/06/03 12:32:11;;;;;;;6.22;1.98;;;;;;;;;;5094525;28;20040;-80
2022/06/03 12:34:37;;;;;;;3.40;2.53;;;;;;;;;;5094490;28;20031;-80
2022/06/03 12:37:23;;;;;;;2.72;2.05;;;;;;;;;;5095612;28;20448;-85
2022/06/03 12:39:58;;;;;;;2.50;2.28;;;;;;;;;;5094600;28;20086;-80
2022/06/03 12:42:24;;;;;;;2.53;2.33;;;;;;;;;;5095126;28;20039;-82
2022/06/03 12:45:03;;;;;;;2.47;2.28;;;;;;;;;;5094847;28;20423;-82
2022/06/03 12:47:32;;;;;;;3.50;2.10;;;;;;;;;;5095597;28;20062;-82
2022/06/03 12:50:17;;;;;;;3.25;2.30;;;;;;;;;;5111915;28;20092;-82
2022/06/03 12:52:45;;;;;;;2.45;2.20;;;;;;;;;;5110993;28;20176;-80
2022/06/03 12:55:31;;;;;;;2.15;1.90;;;;;;;;;;5095227;28;20039;-81
2022/06/03 12:57:57;;;;;;;5.68;2.42;;;;;;;;;;5095201;28;20468;-84
2022/06/03 13:00:32;;;;;;;3.10;2.80;;;;;;;;;;5095522;28;20063;-84
2022/06/03 13:03:03;;;;;;;2.22;2.03;;;;;;;;;;5097148;28;20483;-80
2022/06/03 13:05:42;;;;;;;6.15;2.50;;;;;;;;;;5095909;28;20040;-80
2022/06/03 13:08:08;;;;;;;3.40;2.10;;;;;;;;;;5095040;28;20080;-80
2022/06/03 13:10:53;;;;;;;2.80;2.60;;;;;;;;;;5094864;28;20535;-79
2022/06/03 13:13:23;;;;;;;4.47;1.70;;;;;;;;;;5095915;28;20035;-80
2022/06/03 13:15:49;;;;;;;3.38;2.45;;;;;;;;;;5095030;28;20127;-82
2022/06/03 13:18:33;;;;;;;3.05;2.50;;;;;;;;;;5095231;28;20039;-83
2022/06/03 13:21:01;;;;;;;2.65;1.80;;;;;;;;;;5095217;28;20130;-81
2022/06/03 13:23:32;;;;;;;1.70;1.60;;;;;;;;;;5093757;28;20047;-81
2022/06/03 13:26:16;;;;;;;3.80;2.05;;;;;;;;;;5094247;28;20198;-86
2022/06/03 13:28:43;;;;;;;2.80;2.50;;;;;;;;;;5093568;28;20162;-81
2022/06/03 13:31:22;;;;;;;4.22;3.45;;;;;;;;;;5093898;28;20036;-80
2022/06/03 13:34:10;;;;;;;2.80;2.33;;;;;;;;;;5094185;28;20394;-86
2022/06/03 13:36:51;;;;;;;4.82;2.33;;;;;;;;;;5093449;28;20233;-83
2022/06/03 13:39:20;;;;;;;2.40;2.20;;;;;;;;;;5111312;28;20069;-86
2022/06/03 13:44:47;;;;;;;3.90;2.30;;;;;;;;;;5114656;28;20054;-87
2022/06/03 13:47:13;;;;;;;2.72;2.35;;;;;;;;;;5097970;28;20131;-81
2022/06/03 13:49:47;;;;;;;2.50;2.30;;;;;;;;;;5115176;28;20123;-79
2022/06/03 13:52:19;;;;;;;2.30;2.03;;;;;;;;;;5097235;28;20122;-80
2022/06/03 13:54:49;;;;;;;2.05;1.90;;;;;;;;;;5097665;28;20105;-81
2022/06/03 13:57:21;;;;;;;3.15;2.00;;;;;;;;;;5114339;28;20410;-80
2022/06/03 13:59:47;;;;;;;2.90;1.80;;;;;;;;;;5098061;28;20158;-87
2022/06/03 14:02:34;;;;;;;1.88;1.77;;;;;;;;;;5097768;28;20047;-83
2022/06/03 14:05:15;;;;;;;2.10;1.90;;;;;;;;;;5097307;28;20077;-83
2022/06/03 14:07:43;;;;;;;2.45;1.85;;;;;;;;;;5081448;28;20494;-79
2022/06/03 14:10:19;;;;;;;2.78;1.98;;;;;;;;;;5096983;28;20449;-80
2022/06/03 14:12:54;;;;;;;2.83;1.83;;;;;;;;;;5115310;28;20046;-87
2022/06/03 14:15:27;;;;;;;4.18;1.85;;;;;;;;;;5099190;28;20039;-82
2022/06/03 14:17:55;;;;;;;2.63;2.10;;;;;;;;;;5098784;28;20564;-85
2022/06/03 14:20:32;;;;;;;2.10;1.90;;;;;;;;;;5114213;28;20039;-80
2022/06/03 14:23:06;;;;;;;2.47;1.65;;;;;;;;;;5098824;28;20042;-86
2022/06/03 14:25:36;;;;;;;3.80;1.85;;;;;;;;;;5097730;28;20449;-82
2022/06/03 14:28:21;;;;;;;2.47;1.45;;;;;;;;;;5097431;28;20042;-80
2022/06/03 14:30:51;;;;;;;3.65;2.25;;;;;;;;;;5096763;28;20039;-82
2022/06/03 14:33:17;;;;;;;2.45;1.90;;;;;;;;;;5098030;28;20031;-88
2022/06/03 14:35:46;;;;;;;3.25;1.95;;;;;;;;;;5114612;28;20048;-84
2022/06/03 14:38:36;;;;;;;3.45;1.85;;;;;;;;;;5114389;28;20479;-84
2022/06/03 14:41:02;;;;;;;1.80;1.70;;;;;;;;;;5089859;28;20047;-85
2022/06/03 14:43:29;;;;;;;1.88;1.50;;;;;;;;;;5098873;28;20566;-86
2022/06/03 14:46:02;;;;;;;3.20;1.88;;;;;;;;;;5097729;28;20039;-81
2022/06/03 14:48:33;;;;;;;2.88;1.98;;;;;;;;;;5097239;28;20043;-85
2022/06/03 14:50:59;;;;;;;;;;;;;;;;;;5097585;28;20035;-86
2022/06/03 14:53:29;;;;;;;2.53;1.25;;;;;;;;;;5095364;28;19927;-86
2022/06/03 14:56:02;;;;;;;3.03;1.73;;;;;;;;;;5096629;28;20044;-80
2022/06/03 14:58:31;;;;;;;1.60;1.27;;;;;;;;;;5114232;28;20338;-84
2022/06/03 15:01:13;;;;;;;1.92;1.45;;;;;;;;;;5113808;28;20043;-83
2022/06/03 15:03:42;;;;;;;3.75;1.70;;;;;;;;;;5096989;28;20046;-83
2022/06/03 15:06:12;;;;;;;3.05;1.83;;;;;;;;;;5112945;28;20044;-86
2022/06/03 15:08:58;;;;;;;1.98;1.58;;;;;;;;;;5096266;28;20035;-80
2022/06/03 15:11:32;;;;;;;1.55;1.45;;;;;;;;;;5095998;28;20047;-80
2022/06/03 15:13:58;;;;;;;3.65;1.60;;;;;;;;;;5113646;28;20035;-87
2022/06/03 15:16:24;;;;;;;2.50;1.50;;;;;;;;;;5096618;28;20043;-79
2022/06/03 15:18:51;;;;;;;2.50;1.25;;;;;;;;;;5113132;28;20081;-86
2022/06/03 15:21:26;;;;;;;1.38;1.25;;;;;;;;;;5095962;28;20043;-81
2022/06/03 15:23:53;;;;;;;1.67;1.58;;;;;;;;;;5113236;28;20556;-83
2022/06/03 15:26:23;;;;;;;1.95;1.60;;;;;;;;;;5113007;28;20503;-85
2022/06/03 15:28:51;;;;;;;4.43;1.75;;;;;;;;;;5096174;28;20031;-81
2022/06/03 15:31:21;;;;;;;2.63;1.70;;;;;;;;;;5095888;28;20078;-82
2022/06/03 15:33:55;;;;;;;1.93;1.10;;;;;;;;;;5096153;28;20134;-78
2022/06/03 15:36:22;;;;;;;2.45;1.60;;;;;;;;;;5095873;28;20285;-81
2022/06/03 15:38:51;;;;;;;4.28;1.45;;;;;;;;;;5096010;28;20047;-83
2022/06/03 15:41:22;;;;;;;1.20;1.10;;;;;;;;;;5095261;28;20151;-83
2022/06/03 15:43:49;;;;;;;2.08;1.05;;;;;;;;;;5095447;28;20134;-85
2022/06/03 15:46:39;;;;;;;2.97;1.70;;;;;;;;;;5112681;28;20067;-83
2022/06/03 15:49:07;;;;;;;3.95;1.63;;;;;;;;;;5095970;28;20027;-85
2022/06/03 15:51:41;;;;;;;2.75;1.40;;;;;;;;;;5095517;28;20168;-82